UAL520 KPDX-KMFR
Flight info
| Callsign | UAL520 |
|---|---|
| Flight time | 0h 43m |
| Altitude | 27000 |
| Route | MINNE5 MINNE Q5 HISKU SAMIE |
| Aircraft | B738/M-SDE2E3FGHIRWXY/LB1 |
Departure
| Time | 2026-05-07 00:55 |
|---|---|
| Airport | Portland International Airport (KPDX) |
Arrival
| Time | 2026-05-07 01:38 |
|---|---|
| Airport | Rogue Valley International-Medford Airport (KMFR) |
| Time | Latitude | Longitude | Altitude | Speed | Heading |
|---|---|---|---|---|---|
| 2026-05-07 00:33 | 45.58985 | -122.59053 | 31 ft | 0 kts | 210° |
| 2026-05-07 00:37 | 45.58985 | -122.59052 | 30 ft | 0 kts | 210° |
| 2026-05-07 00:44 | 45.58991 | -122.59048 | 30 ft | 2 kts | 206° |
| 2026-05-07 00:44 | 45.59000 | -122.59042 | 30 ft | 2 kts | 195° |
| 2026-05-07 00:45 | 45.59014 | -122.59038 | 30 ft | 2 kts | 185° |
| 2026-05-07 00:45 | 45.59030 | -122.59038 | 30 ft | 2 kts | 173° |
| 2026-05-07 00:45 | 45.59040 | -122.59041 | 30 ft | 2 kts | 165° |
| 2026-05-07 00:45 | 45.59058 | -122.59051 | 31 ft | 2 kts | 149° |
| 2026-05-07 00:46 | 45.59066 | -122.59058 | 31 ft | 2 kts | 142° |
| 2026-05-07 00:46 | 45.59078 | -122.59073 | 31 ft | 2 kts | 130° |
| 2026-05-07 00:46 | 45.59086 | -122.59090 | 30 ft | 1 kts | 118° |
| 2026-05-07 00:46 | 45.59087 | -122.59092 | 30 ft | 0 kts | 118° |
| 2026-05-07 00:48 | 45.59081 | -122.59076 | 30 ft | 8 kts | 120° |
| 2026-05-07 00:48 | 45.59048 | -122.58992 | 30 ft | 17 kts | 118° |
| 2026-05-07 00:48 | 45.59029 | -122.58831 | 30 ft | 16 kts | 89° |
| 2026-05-07 00:49 | 45.59008 | -122.58677 | 30 ft | 15 kts | 117° |
| 2026-05-07 00:49 | 45.58958 | -122.58547 | 30 ft | 14 kts | 118° |
| 2026-05-07 00:49 | 45.58909 | -122.58423 | 30 ft | 14 kts | 118° |
| 2026-05-07 00:49 | 45.58848 | -122.58264 | 30 ft | 13 kts | 118° |
| 2026-05-07 00:50 | 45.58805 | -122.58154 | 30 ft | 12 kts | 119° |
| 2026-05-07 00:50 | 45.58777 | -122.58084 | 30 ft | 11 kts | 118° |
| 2026-05-07 00:50 | 45.58716 | -122.57925 | 30 ft | 15 kts | 119° |
| 2026-05-07 00:50 | 45.58665 | -122.57794 | 29 ft | 14 kts | 118° |
| 2026-05-07 00:51 | 45.58633 | -122.57712 | 30 ft | 14 kts | 118° |
| 2026-05-07 00:51 | 45.58587 | -122.57594 | 30 ft | 13 kts | 118° |
| 2026-05-07 00:51 | 45.58544 | -122.57484 | 30 ft | 12 kts | 119° |
| 2026-05-07 00:51 | 45.58504 | -122.57381 | 30 ft | 11 kts | 118° |
| 2026-05-07 00:52 | 45.58451 | -122.57246 | 30 ft | 12 kts | 118° |
| 2026-05-07 00:52 | 45.58419 | -122.57163 | 31 ft | 16 kts | 118° |
| 2026-05-07 00:52 | 45.58366 | -122.57027 | 31 ft | 15 kts | 119° |
| 2026-05-07 00:52 | 45.58318 | -122.56901 | 31 ft | 14 kts | 118° |
| 2026-05-07 00:53 | 45.58276 | -122.56781 | 32 ft | 13 kts | 103° |
| 2026-05-07 00:53 | 45.58274 | -122.56756 | 32 ft | 0 kts | 86° |
| 2026-05-07 00:53 | 45.58275 | -122.56750 | 32 ft | 3 kts | 85° |
| 2026-05-07 00:54 | 45.58293 | -122.56708 | 32 ft | 11 kts | 34° |
| 2026-05-07 00:54 | 45.58379 | -122.56741 | 31 ft | 15 kts | 302° |
| 2026-05-07 00:54 | 45.58443 | -122.56901 | 31 ft | 34 kts | 299° |
| 2026-05-07 00:54 | 45.58696 | -122.57550 | 30 ft | 113 kts | 298° |
| 2026-05-07 00:55 | 45.59175 | -122.58779 | 73 ft | 169 kts | 300° |
| 2026-05-07 00:55 | 45.59730 | -122.60264 | 961 ft | 166 kts | 298° |
| 2026-05-07 00:55 | 45.60255 | -122.61728 | 1748 ft | 171 kts | 297° |
| 2026-05-07 00:55 | 45.61039 | -122.63813 | 2538 ft | 186 kts | 298° |
| 2026-05-07 00:56 | 45.61418 | -122.64932 | 2885 ft | 197 kts | 290° |
| 2026-05-07 00:56 | 45.61792 | -122.66895 | 3457 ft | 212 kts | 283° |
| 2026-05-07 00:56 | 45.62297 | -122.68921 | 4114 ft | 223 kts | 297° |
| 2026-05-07 00:56 | 45.63100 | -122.70885 | 4748 ft | 236 kts | 302° |
| 2026-05-07 00:57 | 45.64012 | -122.72945 | 5412 ft | 248 kts | 301° |
| 2026-05-07 00:57 | 45.64930 | -122.75066 | 6197 ft | 255 kts | 300° |
| 2026-05-07 00:57 | 45.65707 | -122.76932 | 6957 ft | 257 kts | 300° |
| 2026-05-07 00:57 | 45.66587 | -122.79178 | 7800 ft | 260 kts | 295° |
| 2026-05-07 00:58 | 45.67113 | -122.81673 | 8670 ft | 263 kts | 276° |
| 2026-05-07 00:58 | 45.66894 | -122.84300 | 9520 ft | 268 kts | 257° |
| 2026-05-07 00:58 | 45.66297 | -122.86842 | 10278 ft | 274 kts | 251° |
| 2026-05-07 00:58 | 45.65270 | -122.89304 | 10750 ft | 296 kts | 233° |
| 2026-05-07 00:59 | 45.61477 | -122.92409 | 11621 ft | 342 kts | 196° |
| 2026-05-07 00:59 | 45.59086 | -122.92868 | 12048 ft | 359 kts | 189° |
| 2026-05-07 00:59 | 45.56520 | -122.93139 | 12578 ft | 370 kts | 188° |
| 2026-05-07 01:00 | 45.53987 | -122.93356 | 13209 ft | 377 kts | 187° |
| 2026-05-07 01:00 | 45.51353 | -122.93589 | 13921 ft | 380 kts | 188° |
| 2026-05-07 01:00 | 45.48710 | -122.93847 | 14607 ft | 384 kts | 188° |
| 2026-05-07 01:00 | 45.45106 | -122.94234 | 15541 ft | 389 kts | 189° |
| 2026-05-07 01:01 | 45.43271 | -122.94440 | 16051 ft | 390 kts | 189° |
| 2026-05-07 01:01 | 45.40539 | -122.94752 | 16687 ft | 395 kts | 189° |
| 2026-05-07 01:01 | 45.37758 | -122.95073 | 17358 ft | 398 kts | 189° |
| 2026-05-07 01:01 | 45.34981 | -122.95396 | 18024 ft | 401 kts | 189° |
| 2026-05-07 01:02 | 45.32146 | -122.95727 | 18593 ft | 406 kts | 189° |
| 2026-05-07 01:02 | 45.29301 | -122.96060 | 19195 ft | 410 kts | 189° |
| 2026-05-07 01:02 | 45.26437 | -122.96394 | 19760 ft | 414 kts | 189° |
| 2026-05-07 01:02 | 45.23504 | -122.96737 | 20350 ft | 418 kts | 189° |
| 2026-05-07 01:03 | 45.20516 | -122.96986 | 20856 ft | 425 kts | 186° |
| 2026-05-07 01:03 | 45.17554 | -122.97008 | 21372 ft | 431 kts | 184° |
| 2026-05-07 01:03 | 45.14442 | -122.96900 | 21893 ft | 436 kts | 182° |
| 2026-05-07 01:03 | 45.11356 | -122.96742 | 22422 ft | 440 kts | 182° |
| 2026-05-07 01:04 | 45.08310 | -122.96576 | 22885 ft | 445 kts | 182° |
| 2026-05-07 01:04 | 45.05468 | -122.96429 | 23340 ft | 448 kts | 182° |
| 2026-05-07 01:04 | 45.03653 | -122.96340 | 23632 ft | 450 kts | 182° |
| 2026-05-07 01:04 | 44.99052 | -122.96137 | 24372 ft | 455 kts | 182° |
| 2026-05-07 01:05 | 44.95957 | -122.96013 | 24844 ft | 458 kts | 182° |
| 2026-05-07 01:05 | 44.92793 | -122.95893 | 25360 ft | 460 kts | 182° |
| 2026-05-07 01:05 | 44.89858 | -122.95785 | 26046 ft | 457 kts | 182° |
| 2026-05-07 01:05 | 44.86683 | -122.95670 | 26655 ft | 456 kts | 182° |
| 2026-05-07 01:06 | 44.83700 | -122.95564 | 27093 ft | 457 kts | 182° |
| 2026-05-07 01:06 | 44.80501 | -122.95454 | 27135 ft | 461 kts | 182° |
| 2026-05-07 01:06 | 44.77419 | -122.95348 | 27132 ft | 457 kts | 182° |
| 2026-05-07 01:06 | 44.74356 | -122.95242 | 27128 ft | 454 kts | 182° |
| 2026-05-07 01:07 | 44.71179 | -122.95133 | 27126 ft | 456 kts | 182° |
| 2026-05-07 01:07 | 44.68006 | -122.95026 | 27124 ft | 457 kts | 182° |
| 2026-05-07 01:07 | 44.64845 | -122.94920 | 27123 ft | 456 kts | 182° |
| 2026-05-07 01:07 | 44.61680 | -122.94813 | 27125 ft | 455 kts | 182° |
| 2026-05-07 01:08 | 44.58484 | -122.94704 | 27121 ft | 455 kts | 182° |
| 2026-05-07 01:08 | 44.55331 | -122.94598 | 27120 ft | 455 kts | 182° |
| 2026-05-07 01:08 | 44.52171 | -122.94492 | 27121 ft | 456 kts | 182° |
| 2026-05-07 01:08 | 44.48991 | -122.94395 | 27118 ft | 456 kts | 182° |
| 2026-05-07 01:09 | 44.45824 | -122.94402 | 27122 ft | 454 kts | 184° |
| 2026-05-07 01:09 | 44.42676 | -122.94504 | 27122 ft | 455 kts | 185° |
| 2026-05-07 01:09 | 44.39516 | -122.94655 | 27122 ft | 454 kts | 185° |
| 2026-05-07 01:09 | 44.36359 | -122.94820 | 27126 ft | 453 kts | 185° |
| 2026-05-07 01:10 | 44.33234 | -122.94984 | 27129 ft | 453 kts | 185° |
| 2026-05-07 01:10 | 44.30063 | -122.95143 | 27132 ft | 454 kts | 185° |
| 2026-05-07 01:10 | 44.26938 | -122.95292 | 27130 ft | 453 kts | 185° |
| 2026-05-07 01:10 | 44.23773 | -122.95435 | 27135 ft | 453 kts | 185° |
| 2026-05-07 01:11 | 44.20633 | -122.95572 | 27134 ft | 453 kts | 185° |
| 2026-05-07 01:11 | 44.17541 | -122.95702 | 27136 ft | 453 kts | 185° |
| 2026-05-07 01:11 | 44.14397 | -122.95830 | 27137 ft | 454 kts | 185° |
| 2026-05-07 01:11 | 44.11281 | -122.95956 | 27138 ft | 454 kts | 184° |
| 2026-05-07 01:12 | 44.08105 | -122.96083 | 27137 ft | 454 kts | 184° |
| 2026-05-07 01:12 | 44.04942 | -122.96209 | 27134 ft | 453 kts | 184° |
| 2026-05-07 01:12 | 44.01820 | -122.96332 | 27139 ft | 452 kts | 184° |
| 2026-05-07 01:12 | 43.98654 | -122.96457 | 27137 ft | 453 kts | 184° |
| 2026-05-07 01:13 | 43.95511 | -122.96580 | 27136 ft | 453 kts | 184° |
| 2026-05-07 01:13 | 43.92359 | -122.96703 | 27136 ft | 453 kts | 184° |
| 2026-05-07 01:13 | 43.89203 | -122.96826 | 27134 ft | 453 kts | 184° |
| 2026-05-07 01:13 | 43.86806 | -122.96920 | 27135 ft | 453 kts | 184° |
| 2026-05-07 01:14 | 43.83633 | -122.97043 | 27135 ft | 453 kts | 184° |
| 2026-05-07 01:14 | 43.80456 | -122.97167 | 27134 ft | 453 kts | 184° |
| 2026-05-07 01:14 | 43.77331 | -122.97289 | 27132 ft | 453 kts | 184° |
| 2026-05-07 01:14 | 43.74181 | -122.97412 | 27132 ft | 452 kts | 184° |
| 2026-05-07 01:15 | 43.71043 | -122.97534 | 27135 ft | 452 kts | 184° |
| 2026-05-07 01:15 | 43.67904 | -122.97657 | 27136 ft | 452 kts | 184° |
| 2026-05-07 01:15 | 43.64773 | -122.97778 | 27140 ft | 452 kts | 184° |
| 2026-05-07 01:15 | 43.61643 | -122.97900 | 27141 ft | 452 kts | 184° |
| 2026-05-07 01:16 | 43.58502 | -122.98022 | 27143 ft | 452 kts | 184° |
| 2026-05-07 01:16 | 43.55331 | -122.98144 | 27147 ft | 451 kts | 184° |
| 2026-05-07 01:16 | 43.52237 | -122.98264 | 27148 ft | 452 kts | 184° |
| 2026-05-07 01:16 | 43.49079 | -122.98387 | 27149 ft | 452 kts | 184° |
| 2026-05-07 01:17 | 43.45938 | -122.98508 | 27150 ft | 453 kts | 184° |
| 2026-05-07 01:17 | 43.42802 | -122.98630 | 27149 ft | 452 kts | 184° |
| 2026-05-07 01:17 | 43.39657 | -122.98751 | 27143 ft | 452 kts | 184° |
| 2026-05-07 01:17 | 43.36527 | -122.98872 | 27137 ft | 452 kts | 184° |
| 2026-05-07 01:18 | 43.33387 | -122.98992 | 27134 ft | 452 kts | 184° |
| 2026-05-07 01:18 | 43.30233 | -122.99113 | 27133 ft | 452 kts | 184° |
| 2026-05-07 01:18 | 43.27085 | -122.99235 | 27131 ft | 451 kts | 184° |
| 2026-05-07 01:18 | 43.23942 | -122.99355 | 27126 ft | 448 kts | 184° |
| 2026-05-07 01:19 | 43.20919 | -122.99468 | 27124 ft | 434 kts | 184° |
| 2026-05-07 01:19 | 43.17918 | -122.99579 | 27025 ft | 422 kts | 184° |
| 2026-05-07 01:19 | 43.14965 | -122.99689 | 26711 ft | 423 kts | 184° |
| 2026-05-07 01:19 | 43.12013 | -122.99805 | 26245 ft | 429 kts | 184° |
| 2026-05-07 01:20 | 43.09034 | -122.99924 | 25691 ft | 427 kts | 184° |
| 2026-05-07 01:20 | 43.06068 | -123.00039 | 25107 ft | 426 kts | 184° |
| 2026-05-07 01:20 | 43.03116 | -123.00152 | 24531 ft | 424 kts | 184° |
| 2026-05-07 01:20 | 43.00173 | -123.00263 | 23947 ft | 422 kts | 184° |
| 2026-05-07 01:21 | 42.97241 | -123.00373 | 23370 ft | 420 kts | 184° |
| 2026-05-07 01:21 | 42.94313 | -123.00483 | 22797 ft | 418 kts | 184° |
| 2026-05-07 01:21 | 42.91553 | -123.00588 | 22259 ft | 416 kts | 184° |
| 2026-05-07 01:21 | 42.89365 | -123.00671 | 21822 ft | 415 kts | 184° |
| 2026-05-07 01:22 | 42.87495 | -123.00741 | 21415 ft | 410 kts | 184° |
| 2026-05-07 01:22 | 42.84592 | -123.00847 | 20876 ft | 396 kts | 184° |
| 2026-05-07 01:22 | 42.81879 | -123.00945 | 20344 ft | 385 kts | 184° |
| 2026-05-07 01:22 | 42.79297 | -123.01041 | 19829 ft | 382 kts | 184° |
| 2026-05-07 01:23 | 42.76646 | -123.01143 | 19290 ft | 381 kts | 185° |
| 2026-05-07 01:23 | 42.74001 | -123.01246 | 18781 ft | 378 kts | 185° |
| 2026-05-07 01:23 | 42.71371 | -123.01347 | 18284 ft | 374 kts | 185° |
| 2026-05-07 01:23 | 42.68791 | -123.01417 | 17721 ft | 369 kts | 182° |
| 2026-05-07 01:24 | 42.66269 | -123.01063 | 17136 ft | 366 kts | 168° |
| 2026-05-07 01:24 | 42.63944 | -122.99686 | 16619 ft | 366 kts | 146° |
| 2026-05-07 01:24 | 42.62123 | -122.97300 | 16153 ft | 368 kts | 128° |
| 2026-05-07 01:24 | 42.60620 | -122.94512 | 15596 ft | 365 kts | 126° |
| 2026-05-07 01:25 | 42.59150 | -122.91700 | 15062 ft | 361 kts | 126° |
| 2026-05-07 01:25 | 42.57719 | -122.88986 | 14546 ft | 357 kts | 127° |
| 2026-05-07 01:25 | 42.56247 | -122.86233 | 14036 ft | 355 kts | 127° |
| 2026-05-07 01:25 | 42.54797 | -122.83549 | 13507 ft | 352 kts | 127° |
| 2026-05-07 01:26 | 42.53370 | -122.80926 | 13017 ft | 351 kts | 127° |
| 2026-05-07 01:26 | 42.51917 | -122.78266 | 12499 ft | 351 kts | 127° |
| 2026-05-07 01:26 | 42.50464 | -122.75610 | 11969 ft | 348 kts | 127° |
| 2026-05-07 01:26 | 42.49034 | -122.72999 | 11480 ft | 344 kts | 127° |
| 2026-05-07 01:27 | 42.47638 | -122.70448 | 11027 ft | 339 kts | 127° |
| 2026-05-07 01:27 | 42.46241 | -122.67896 | 10785 ft | 327 kts | 127° |
| 2026-05-07 01:27 | 42.44933 | -122.65507 | 10686 ft | 314 kts | 127° |
| 2026-05-07 01:27 | 42.43652 | -122.63168 | 10577 ft | 300 kts | 127° |
| 2026-05-07 01:28 | 42.42433 | -122.60947 | 10504 ft | 292 kts | 127° |
| 2026-05-07 01:28 | 42.41248 | -122.58794 | 10380 ft | 279 kts | 128° |
| 2026-05-07 01:28 | 42.40110 | -122.56730 | 10249 ft | 268 kts | 128° |
| 2026-05-07 01:28 | 42.38922 | -122.54783 | 9954 ft | 265 kts | 136° |
| 2026-05-07 01:29 | 42.37544 | -122.53223 | 9664 ft | 257 kts | 149° |
| 2026-05-07 01:29 | 42.36004 | -122.52103 | 9397 ft | 247 kts | 159° |
| 2026-05-07 01:29 | 42.34422 | -122.51306 | 9130 ft | 238 kts | 166° |
| 2026-05-07 01:29 | 42.32887 | -122.50859 | 8887 ft | 229 kts | 176° |
| 2026-05-07 01:30 | 42.31321 | -122.50782 | 8647 ft | 226 kts | 185° |
| 2026-05-07 01:30 | 42.29766 | -122.50994 | 8402 ft | 223 kts | 192° |
| 2026-05-07 01:30 | 42.28271 | -122.51484 | 8150 ft | 214 kts | 202° |
| 2026-05-07 01:30 | 42.26984 | -122.52210 | 7933 ft | 209 kts | 210° |
| 2026-05-07 01:31 | 42.25718 | -122.53201 | 7700 ft | 209 kts | 217° |
| 2026-05-07 01:31 | 42.24603 | -122.54349 | 7476 ft | 208 kts | 225° |
| 2026-05-07 01:31 | 42.23599 | -122.55740 | 7412 ft | 203 kts | 233° |
| 2026-05-07 01:31 | 42.22767 | -122.57217 | 7167 ft | 211 kts | 239° |
| 2026-05-07 01:32 | 42.22039 | -122.58962 | 6671 ft | 215 kts | 249° |
| 2026-05-07 01:32 | 42.21516 | -122.60834 | 6311 ft | 211 kts | 256° |
| 2026-05-07 01:32 | 42.21186 | -122.62716 | 6027 ft | 204 kts | 264° |
| 2026-05-07 01:32 | 42.21053 | -122.64592 | 5766 ft | 198 kts | 272° |
| 2026-05-07 01:33 | 42.21111 | -122.66440 | 5555 ft | 199 kts | 279° |
| 2026-05-07 01:33 | 42.21334 | -122.68252 | 5278 ft | 195 kts | 286° |
| 2026-05-07 01:33 | 42.21728 | -122.69968 | 5004 ft | 187 kts | 294° |
| 2026-05-07 01:33 | 42.22255 | -122.71537 | 4768 ft | 182 kts | 300° |
| 2026-05-07 01:34 | 42.22885 | -122.73018 | 4616 ft | 182 kts | 303° |
| 2026-05-07 01:34 | 42.23544 | -122.74474 | 4241 ft | 184 kts | 303° |
| 2026-05-07 01:34 | 42.24200 | -122.75942 | 3958 ft | 180 kts | 302° |
| 2026-05-07 01:34 | 42.24837 | -122.77381 | 3711 ft | 180 kts | 302° |
| 2026-05-07 01:35 | 42.25486 | -122.78785 | 3554 ft | 169 kts | 307° |
| 2026-05-07 01:35 | 42.26147 | -122.79906 | 3418 ft | 163 kts | 314° |
| 2026-05-07 01:35 | 42.26930 | -122.80926 | 3264 ft | 152 kts | 320° |
| 2026-05-07 01:35 | 42.27714 | -122.81762 | 3109 ft | 150 kts | 325° |
| 2026-05-07 01:36 | 42.28592 | -122.82523 | 2970 ft | 149 kts | 330° |
| 2026-05-07 01:36 | 42.29527 | -122.83162 | 2829 ft | 149 kts | 336° |
| 2026-05-07 01:36 | 42.30437 | -122.83657 | 2717 ft | 147 kts | 339° |
| 2026-05-07 01:36 | 42.31403 | -122.84122 | 2567 ft | 146 kts | 339° |
| 2026-05-07 01:37 | 42.32341 | -122.84624 | 2335 ft | 145 kts | 336° |
| 2026-05-07 01:37 | 42.33289 | -122.85111 | 2093 ft | 144 kts | 338° |
| 2026-05-07 01:37 | 42.34226 | -122.85605 | 1878 ft | 144 kts | 335° |
| 2026-05-07 01:37 | 42.35162 | -122.86097 | 1645 ft | 144 kts | 337° |
| 2026-05-07 01:38 | 42.36085 | -122.86584 | 1438 ft | 141 kts | 335° |
| 2026-05-07 01:38 | 42.36976 | -122.87043 | 1342 ft | 127 kts | 337° |
| 2026-05-07 01:38 | 42.37577 | -122.87370 | 1332 ft | 57 kts | 338° |
| 2026-05-07 01:38 | 42.37837 | -122.87505 | 1329 ft | 40 kts | 338° |
| 2026-05-07 01:39 | 42.38038 | -122.87613 | 1327 ft | 18 kts | 333° |
| 2026-05-07 01:39 | 42.38046 | -122.87740 | 1327 ft | 5 kts | 241° |
| 2026-05-07 01:39 | 42.38045 | -122.87742 | 1327 ft | 0 kts | 234° |
| 2026-05-07 01:40 | 42.38017 | -122.87755 | 1327 ft | 11 kts | 178° |
| 2026-05-07 01:40 | 42.37888 | -122.87695 | 1328 ft | 24 kts | 158° |
| 2026-05-07 01:40 | 42.37732 | -122.87614 | 1330 ft | 23 kts | 159° |
| 2026-05-07 01:40 | 42.37594 | -122.87540 | 1331 ft | 21 kts | 159° |
| 2026-05-07 01:41 | 42.37459 | -122.87470 | 1333 ft | 20 kts | 158° |
| 2026-05-07 01:41 | 42.37333 | -122.87404 | 1335 ft | 18 kts | 158° |
| 2026-05-07 01:41 | 42.37219 | -122.87344 | 1336 ft | 16 kts | 159° |
| 2026-05-07 01:41 | 42.37116 | -122.87290 | 1337 ft | 15 kts | 158° |
| 2026-05-07 01:42 | 42.37023 | -122.87267 | 1339 ft | 12 kts | 201° |
| 2026-05-07 01:42 | 42.36945 | -122.87293 | 1339 ft | 10 kts | 207° |
| 2026-05-07 01:42 | 42.36911 | -122.87363 | 1339 ft | 0 kts | 248° |